sensor_id;sensor_type;location;lat;lon;timestamp;pressure;altitude;pressure_sealevel;temperature;humidity
17649;BME280;8943;51.110;-4.158;2024-03-23T08:17:25;101287.25;;;11.72;53.93
17649;BME280;8943;51.110;-4.158;2024-03-23T08:40:28;101273.56;;;11.39;52.50
17649;BME280;8943;51.110;-4.158;2024-03-23T08:43:45;101272.28;;;11.44;51.88
17649;BME280;8943;51.110;-4.158;2024-03-23T08:52:50;101254.88;;;11.64;51.48
17649;BME280;8943;51.110;-4.158;2024-03-23T09:07:04;101243.81;;;11.83;50.82
17649;BME280;8943;51.110;-4.158;2024-03-23T09:12:12;101237.69;;;11.68;50.35
17649;BME280;8943;51.110;-4.158;2024-03-23T09:14:41;101228.06;;;11.66;51.28
17649;BME280;8943;51.110;-4.158;2024-03-23T09:22:49;101198.91;;;11.75;51.90
17649;BME280;8943;51.110;-4.158;2024-03-23T09:36:42;101182.22;;;12.47;51.89
17649;BME280;8943;51.110;-4.158;2024-03-23T09:48:54;101177.63;;;13.19;49.57
17649;BME280;8943;51.110;-4.158;2024-03-23T09:54:24;101195.81;;;13.49;46.36
17649;BME280;8943;51.110;-4.158;2024-03-23T10:02:12;101186.44;;;13.44;46.75
17649;BME280;8943;51.110;-4.158;2024-03-23T10:04:57;101174.53;;;13.48;46.18
17649;BME280;8943;51.110;-4.158;2024-03-23T10:07:25;101164.19;;;13.43;46.40
17649;BME280;8943;51.110;-4.158;2024-03-23T10:13:35;101155.91;;;13.69;45.77
17649;BME280;8943;51.110;-4.158;2024-03-23T10:18:45;101162.47;;;13.76;44.71
17649;BME280;8943;51.110;-4.158;2024-03-23T10:21:25;101174.66;;;13.80;44.53
17649;BME280;8943;51.110;-4.158;2024-03-23T10:23:51;101155.53;;;13.84;44.15
17649;BME280;8943;51.110;-4.158;2024-03-23T10:26:24;101179.63;;;13.84;44.13
17649;BME280;8943;51.110;-4.158;2024-03-23T10:34:49;101147.28;;;13.76;45.42
17649;BME280;8943;51.110;-4.158;2024-03-23T10:37:21;101153.00;;;13.83;44.95
17649;BME280;8943;51.110;-4.158;2024-03-23T10:39:49;101157.81;;;14.00;44.58
17649;BME280;8943;51.110;-4.158;2024-03-23T10:42:20;101165.72;;;14.13;44.95
17649;BME280;8943;51.110;-4.158;2024-03-23T10:58:17;101133.91;;;14.31;43.88
17649;BME280;8943;51.110;-4.158;2024-03-23T11:00:52;101160.91;;;14.39;44.49
17649;BME280;8943;51.110;-4.158;2024-03-23T11:03:53;101125.81;;;14.42;44.33
17649;BME280;8943;51.110;-4.158;2024-03-23T11:07:02;101140.31;;;14.39;44.34
17649;BME280;8943;51.110;-4.158;2024-03-23T11:09:55;101123.66;;;14.25;44.10
17649;BME280;8943;51.110;-4.158;2024-03-23T11:13:02;101158.00;;;13.76;46.77
17649;BME280;8943;51.110;-4.158;2024-03-23T11:16:13;101129.53;;;12.95;49.00
17649;BME280;8943;51.110;-4.158;2024-03-23T11:19:36;101123.81;;;12.29;51.96
17649;BME280;8943;51.110;-4.158;2024-03-23T11:22:08;101144.72;;;12.11;52.82
17649;BME280;8943;51.110;-4.158;2024-03-23T11:24:50;101112.50;;;12.02;52.90
17649;BME280;8943;51.110;-4.158;2024-03-23T11:27:33;101118.13;;;12.10;53.16
17649;BME280;8943;51.110;-4.158;2024-03-23T11:33:16;101136.09;;;12.56;52.03
17649;BME280;8943;51.110;-4.158;2024-03-23T11:35:47;101127.28;;;12.78;52.36
17649;BME280;8943;51.110;-4.158;2024-03-23T11:38:25;101111.53;;;12.97;51.44
17649;BME280;8943;51.110;-4.158;2024-03-23T11:41:33;101092.59;;;13.11;50.83
17649;BME280;8943;51.110;-4.158;2024-03-23T11:44:31;101137.88;;;13.37;50.04
17649;BME280;8943;51.110;-4.158;2024-03-23T11:47:27;101123.41;;;13.51;48.61
17649;BME280;8943;51.110;-4.158;2024-03-23T11:49:55;101109.69;;;13.67;48.51
17649;BME280;8943;51.110;-4.158;2024-03-23T11:52:23;101104.88;;;13.93;48.48
17649;BME280;8943;51.110;-4.158;2024-03-23T11:55:02;101086.47;;;14.10;47.38
17649;BME280;8943;51.110;-4.158;2024-03-23T11:57:30;101116.88;;;14.21;47.53
17649;BME280;8943;51.110;-4.158;2024-03-23T12:00:38;101103.19;;;14.24;46.47
17649;BME280;8943;51.110;-4.158;2024-03-23T12:03:33;101140.34;;;14.28;46.41
17649;BME280;8943;51.110;-4.158;2024-03-23T12:06:08;101101.97;;;14.28;44.74
17649;BME280;8943;51.110;-4.158;2024-03-23T12:08:52;101146.09;;;14.24;44.46
17649;BME280;8943;51.110;-4.158;2024-03-23T12:11:27;101114.16;;;14.32;44.28
17649;BME280;8943;51.110;-4.158;2024-03-23T12:14:29;101105.88;;;14.35;44.53
17649;BME280;8943;51.110;-4.158;2024-03-23T12:17:08;101075.81;;;14.52;45.28
17649;BME280;8943;51.110;-4.158;2024-03-23T12:19:36;101121.63;;;14.60;45.54
17649;BME280;8943;51.110;-4.158;2024-03-23T12:22:23;101081.38;;;14.28;44.33
17649;BME280;8943;51.110;-4.158;2024-03-23T12:25:01;101081.25;;;14.62;45.25
17649;BME280;8943;51.110;-4.158;2024-03-23T12:27:41;101092.19;;;14.70;45.00
17649;BME280;8943;51.110;-4.158;2024-03-23T12:30:09;101121.25;;;14.65;44.41
17649;BME280;8943;51.110;-4.158;2024-03-23T12:32:40;101094.28;;;14.66;44.67
17649;BME280;8943;51.110;-4.158;2024-03-23T12:35:21;101098.34;;;14.61;44.62
17649;BME280;8943;51.110;-4.158;2024-03-23T12:38:06;101089.22;;;14.73;44.61
17649;BME280;8943;51.110;-4.158;2024-03-23T12:40:33;101094.22;;;14.78;44.33
17649;BME280;8943;51.110;-4.158;2024-03-23T12:43:02;101086.38;;;14.65;43.52
17649;BME280;8943;51.110;-4.158;2024-03-23T12:45:30;101076.75;;;14.62;43.49
17649;BME280;8943;51.110;-4.158;2024-03-23T12:47:58;101076.56;;;14.54;43.36
17649;BME280;8943;51.110;-4.158;2024-03-23T12:50:25;101060.72;;;14.51;43.39
17649;BME280;8943;51.110;-4.158;2024-03-23T12:52:54;101070.47;;;14.52;43.22
17649;BME280;8943;51.110;-4.158;2024-03-23T12:55:22;101073.34;;;14.60;44.31
17649;BME280;8943;51.110;-4.158;2024-03-23T13:01:16;101085.00;;;14.71;42.59
17649;BME280;8943;51.110;-4.158;2024-03-23T13:04:08;101068.75;;;14.72;43.11
17649;BME280;8943;51.110;-4.158;2024-03-23T13:06:40;101071.78;;;14.79;43.38
17649;BME280;8943;51.110;-4.158;2024-03-23T13:09:09;101083.69;;;14.86;43.33
17649;BME280;8943;51.110;-4.158;2024-03-23T13:12:04;101064.19;;;14.84;43.20
17649;BME280;8943;51.110;-4.158;2024-03-23T13:15:11;101025.56;;;14.96;43.38
17649;BME280;8943;51.110;-4.158;2024-03-23T13:17:58;101050.56;;;14.97;43.73
17649;BME280;8943;51.110;-4.158;2024-03-23T13:20:38;101056.22;;;14.93;42.92
17649;BME280;8943;51.110;-4.158;2024-03-23T13:23:05;101051.78;;;14.92;42.71
17649;BME280;8943;51.110;-4.158;2024-03-23T13:25:36;101061.69;;;14.92;42.67
17649;BME280;8943;51.110;-4.158;2024-03-23T13:35:37;101031.63;;;14.98;41.57
17649;BME280;8943;51.110;-4.158;2024-03-23T13:42:14;101051.28;;;14.99;42.68
17649;BME280;8943;51.110;-4.158;2024-03-23T13:44:55;101023.84;;;15.26;42.55
17649;BME280;8943;51.110;-4.158;2024-03-23T13:47:45;101037.06;;;15.38;42.14
17649;BME280;8943;51.110;-4.158;2024-03-23T13:50:24;101034.91;;;15.42;41.47
17649;BME280;8943;51.110;-4.158;2024-03-23T13:53:02;101039.75;;;15.38;41.24
17649;BME280;8943;51.110;-4.158;2024-03-23T14:09:17;101038.44;;;15.33;42.18
17649;BME280;8943;51.110;-4.158;2024-03-23T14:12:25;101105.06;;;15.49;41.96
17649;BME280;8943;51.110;-4.158;2024-03-23T14:15:05;101046.16;;;15.57;41.40
17649;BME280;8943;51.110;-4.158;2024-03-23T14:17:51;101050.59;;;15.37;42.62
17649;BME280;8943;51.110;-4.158;2024-03-23T14:27:01;101100.34;;;16.41;37.68
17649;BME280;8943;51.110;-4.158;2024-03-23T14:30:00;101061.41;;;16.55;37.78
17649;BME280;8943;51.110;-4.158;2024-03-23T14:32:42;101057.16;;;16.52;38.95
17649;BME280;8943;51.110;-4.158;2024-03-23T14:35:38;101049.94;;;16.62;37.57
17649;BME280;8943;51.110;-4.158;2024-03-23T14:38:22;101058.16;;;16.32;38.47
17649;BME280;8943;51.110;-4.158;2024-03-23T14:44:29;101045.72;;;16.21;39.20
17649;BME280;8943;51.110;-4.158;2024-03-23T14:47:10;101061.00;;;16.40;39.24
17649;BME280;8943;51.110;-4.158;2024-03-23T14:57:45;101047.53;;;17.53;37.23
17649;BME280;8943;51.110;-4.158;2024-03-23T15:21:00;101049.06;;;13.09;43.13
17649;BME280;8943;51.110;-4.158;2024-03-23T15:23:50;101059.50;;;12.79;44.35
17649;BME280;8943;51.110;-4.158;2024-03-23T16:16:05;101047.22;;;16.62;38.52
17649;BME280;8943;51.110;-4.158;2024-03-23T16:18:51;101065.81;;;16.56;38.97
17649;BME280;8943;51.110;-4.158;2024-03-23T16:21:56;101044.28;;;16.46;38.87
17649;BME280;8943;51.110;-4.158;2024-03-23T16:27:20;101066.63;;;16.08;38.92
17649;BME280;8943;51.110;-4.158;2024-03-23T16:30:26;101042.25;;;15.80;39.03
17649;BME280;8943;51.110;-4.158;2024-03-23T16:52:12;101042.03;;;16.32;39.22
17649;BME280;8943;51.110;-4.158;2024-03-23T16:55:30;101048.53;;;16.39;37.69
17649;BME280;8943;51.110;-4.158;2024-03-23T16:58:04;101055.16;;;16.54;38.14
17649;BME280;8943;51.110;-4.158;2024-03-23T17:00:32;101059.59;;;16.75;37.36
17649;BME280;8943;51.110;-4.158;2024-03-23T17:03:05;101049.75;;;16.93;36.98
17649;BME280;8943;51.110;-4.158;2024-03-23T17:05:48;101055.44;;;16.90;36.55
17649;BME280;8943;51.110;-4.158;2024-03-23T17:11:29;101022.50;;;16.01;37.10
17649;BME280;8943;51.110;-4.158;2024-03-23T17:14:10;101041.53;;;15.68;36.84
17649;BME280;8943;51.110;-4.158;2024-03-23T17:16:59;101034.69;;;15.55;37.23
17649;BME280;8943;51.110;-4.158;2024-03-23T17:19:59;101031.78;;;15.67;37.89
17649;BME280;8943;51.110;-4.158;2024-03-23T17:22:40;101030.13;;;15.95;38.08
17649;BME280;8943;51.110;-4.158;2024-03-23T17:25:40;101031.00;;;16.25;38.00
17649;BME280;8943;51.110;-4.158;2024-03-23T17:28:36;101043.88;;;16.21;38.01
17649;BME280;8943;51.110;-4.158;2024-03-23T17:38:20;101043.25;;;16.86;36.13
17649;BME280;8943;51.110;-4.158;2024-03-23T17:44:11;101041.44;;;17.23;35.63
17649;BME280;8943;51.110;-4.158;2024-03-23T17:47:10;101030.22;;;17.56;34.13
17649;BME280;8943;51.110;-4.158;2024-03-23T17:49:53;101031.34;;;17.25;34.26
17649;BME280;8943;51.110;-4.158;2024-03-23T17:52:56;101031.50;;;16.87;35.20
17649;BME280;8943;51.110;-4.158;2024-03-23T17:56:03;101031.66;;;16.85;36.06
17649;BME280;8943;51.110;-4.158;2024-03-23T17:58:53;101037.41;;;17.00;35.61
17649;BME280;8943;51.110;-4.158;2024-03-23T18:07:04;101047.84;;;17.13;36.39
17649;BME280;8943;51.110;-4.158;2024-03-23T18:10:06;101040.97;;;16.91;36.39
17649;BME280;8943;51.110;-4.158;2024-03-23T18:12:37;101044.28;;;16.65;36.96
17649;BME280;8943;51.110;-4.158;2024-03-23T18:15:10;101045.00;;;16.38;37.06
17649;BME280;8943;51.110;-4.158;2024-03-23T18:18:24;101061.25;;;15.98;37.76
17649;BME280;8943;51.110;-4.158;2024-03-23T18:36:00;101059.16;;;13.62;42.84
17649;BME280;8943;51.110;-4.158;2024-03-23T18:39:10;101048.09;;;13.44;42.79
17649;BME280;8943;51.110;-4.158;2024-03-23T18:42:03;101063.19;;;13.34;43.60
17649;BME280;8943;51.110;-4.158;2024-03-23T18:44:31;101057.38;;;13.29;43.86
17649;BME280;8943;51.110;-4.158;2024-03-23T18:47:51;101060.72;;;13.20;43.93
17649;BME280;8943;51.110;-4.158;2024-03-23T18:50:44;101056.47;;;13.17;43.75
17649;BME280;8943;51.110;-4.158;2024-03-23T19:12:13;101057.81;;;13.00;44.59
17649;BME280;8943;51.110;-4.158;2024-03-23T19:42:26;101086.59;;;12.85;43.60
17649;BME280;8943;51.110;-4.158;2024-03-23T19:51:08;101082.81;;;12.88;43.75
17649;BME280;8943;51.110;-4.158;2024-03-23T20:13:49;101067.50;;;12.90;46.18
17649;BME280;8943;51.110;-4.158;2024-03-23T21:15:34;101096.44;;;12.85;47.70
